createdAt,value
2019-05-05T00:00:04.838Z,1007.93
2019-05-05T00:01:05.116Z,1007.92
2019-05-05T00:02:04.468Z,1007.91
2019-05-05T00:03:04.291Z,1007.96
2019-05-05T00:04:04.489Z,1007.93
2019-05-05T00:05:04.962Z,1007.93
2019-05-05T00:06:05.193Z,1007.92
2019-05-05T00:07:04.397Z,1007.93
2019-05-05T00:08:04.928Z,1007.94
2019-05-05T00:09:05.270Z,1007.96
2019-05-05T00:10:04.604Z,1007.99
2019-05-05T00:11:05.108Z,1007.95
2019-05-05T00:12:05.173Z,1007.96
2019-05-05T00:13:04.528Z,1007.98
2019-05-05T00:14:04.693Z,1008.03
2019-05-05T00:15:05.178Z,1007.99
2019-05-05T00:16:04.656Z,1008.05
2019-05-05T00:17:05.220Z,1008.06
2019-05-05T00:18:05.192Z,1008.06
2019-05-05T00:19:04.792Z,1008.07
2019-05-05T00:20:05.126Z,1008.05
2019-05-05T00:21:04.625Z,1008.07
2019-05-05T00:22:04.557Z,1008.08
2019-05-05T00:23:05.196Z,1008.10
2019-05-05T00:24:04.620Z,1008.10
2019-05-05T00:25:04.942Z,1008.15
2019-05-05T00:26:04.357Z,1008.14
2019-05-05T00:27:04.297Z,1008.17
2019-05-05T00:28:04.885Z,1008.20
2019-05-05T00:29:04.350Z,1008.19
2019-05-05T00:30:02.905Z,1008.23
2019-05-05T00:31:04.656Z,1008.23
2019-05-05T00:32:04.800Z,1008.26
2019-05-05T00:33:02.872Z,1008.25
2019-05-05T00:34:04.870Z,1008.22
2019-05-05T00:35:04.350Z,1008.24
2019-05-05T00:36:07.070Z,1008.26
2019-05-05T00:37:04.683Z,1008.27
2019-05-05T00:38:04.899Z,1008.24
2019-05-05T00:39:04.305Z,1008.27
2019-05-05T00:40:04.852Z,1008.27
2019-05-05T00:41:02.796Z,1008.30
2019-05-05T00:42:04.662Z,1008.28
2019-05-05T00:43:02.769Z,1008.30
2019-05-05T00:44:04.600Z,1008.27
2019-05-05T00:45:02.752Z,1008.30
2019-05-05T00:46:04.586Z,1008.27
2019-05-05T00:47:02.731Z,1008.27
2019-05-05T00:48:04.593Z,1008.27
2019-05-05T00:49:02.707Z,1008.28
2019-05-05T00:50:02.704Z,1008.31
2019-05-05T00:51:04.514Z,1008.32
2019-05-05T00:52:04.937Z,1008.35
2019-05-05T00:53:02.668Z,1008.37
2019-05-05T00:54:04.403Z,1008.37
2019-05-05T00:55:04.499Z,1008.37
2019-05-05T00:56:02.641Z,1008.40
2019-05-05T00:57:04.436Z,1008.36
2019-05-05T00:58:02.625Z,1008.38
2019-05-05T00:59:04.491Z,1008.38
2019-05-05T01:00:02.601Z,1008.35
2019-05-05T01:01:02.589Z,1008.40
2019-05-05T01:02:04.516Z,1008.37
2019-05-05T01:03:04.614Z,1008.40
2019-05-05T01:04:02.558Z,1008.41
2019-05-05T01:05:04.399Z,1008.39
2019-05-05T01:06:04.418Z,1008.38
2019-05-05T01:07:02.534Z,1008.43
2019-05-05T01:08:02.515Z,1008.42
2019-05-05T01:09:04.216Z,1008.42
2019-05-05T01:10:02.494Z,1008.41
2019-05-05T01:11:04.133Z,1008.41
2019-05-05T01:12:04.288Z,1008.44
2019-05-05T01:13:04.637Z,1008.49
2019-05-05T01:14:02.454Z,1008.45
2019-05-05T01:15:04.498Z,1008.46
2019-05-05T01:16:04.638Z,1008.50
2019-05-05T01:17:02.423Z,1008.52
2019-05-05T01:18:02.920Z,1008.53
2019-05-05T01:19:04.396Z,1008.56
2019-05-05T01:20:06.147Z,1008.59
2019-05-05T01:21:04.405Z,1008.57
2019-05-05T01:22:02.367Z,1008.61
2019-05-05T01:23:04.292Z,1008.61
2019-05-05T01:24:02.364Z,1008.63
2019-05-05T01:25:02.339Z,1008.64
2019-05-05T01:26:02.328Z,1008.61
2019-05-05T01:27:04.120Z,1008.63
2019-05-05T01:28:02.307Z,1008.64
2019-05-05T01:29:02.297Z,1008.61
2019-05-05T01:30:02.289Z,1008.67
2019-05-05T01:31:02.273Z,1008.64
2019-05-05T01:32:02.266Z,1008.66
2019-05-05T01:33:02.258Z,1008.65
2019-05-05T01:34:02.242Z,1008.72
2019-05-05T01:35:02.233Z,1008.68
2019-05-05T01:36:02.223Z,1008.70
2019-05-05T01:37:02.214Z,1008.70
2019-05-05T01:38:02.201Z,1008.75
2019-05-05T01:39:04.143Z,1008.76
2019-05-05T01:40:02.182Z,1008.77
2019-05-05T01:41:04.128Z,1008.78
2019-05-05T01:42:02.161Z,1008.76
2019-05-05T01:43:02.149Z,1008.79
2019-05-05T01:44:02.148Z,1008.83
2019-05-05T01:45:04.385Z,1008.76
2019-05-05T01:46:02.116Z,1008.82
2019-05-05T01:47:02.106Z,1008.83
2019-05-05T01:48:02.098Z,1008.83
2019-05-05T01:49:02.084Z,1008.85
2019-05-05T01:50:16.770Z,1008.85
2019-05-05T01:51:02.065Z,1008.89
2019-05-05T01:52:04.218Z,1008.90
2019-05-05T01:53:02.056Z,1008.96
2019-05-05T01:54:02.036Z,1008.91
2019-05-05T01:55:02.025Z,1008.96
2019-05-05T01:56:02.011Z,1009.00
2019-05-05T01:57:01.997Z,1008.99
2019-05-05T01:58:01.987Z,1009.00
2019-05-05T01:59:01.991Z,1009.02
2019-05-05T02:00:04.107Z,1009.04
2019-05-05T02:01:01.954Z,1009.02
2019-05-05T02:02:01.945Z,1009.07
2019-05-05T02:03:01.934Z,1009.10
2019-05-05T02:04:01.923Z,1009.10
2019-05-05T02:05:01.922Z,1009.09
2019-05-05T02:06:01.901Z,1009.14
2019-05-05T02:07:01.888Z,1009.12
2019-05-05T02:08:01.882Z,1009.14
2019-05-05T02:09:01.871Z,1009.14
2019-05-05T02:10:01.861Z,1009.18
2019-05-05T02:11:01.847Z,1009.21
2019-05-05T02:12:01.836Z,1009.19
2019-05-05T02:13:01.825Z,1009.25
2019-05-05T02:14:01.815Z,1009.21
2019-05-05T02:15:01.805Z,1009.24
2019-05-05T02:16:01.799Z,1009.23
2019-05-05T02:17:01.782Z,1009.25
2019-05-05T02:18:01.774Z,1009.24
2019-05-05T02:19:01.760Z,1009.27
2019-05-05T02:20:01.751Z,1009.27
2019-05-05T02:21:01.739Z,1009.23
2019-05-05T02:22:01.735Z,1009.28
2019-05-05T02:23:01.717Z,1009.31
2019-05-05T02:24:01.710Z,1009.33
2019-05-05T02:25:01.698Z,1009.31
2019-05-05T02:26:01.682Z,1009.31
2019-05-05T02:27:01.673Z,1009.35
2019-05-05T02:28:01.665Z,1009.33
2019-05-05T02:29:01.655Z,1009.33
2019-05-05T02:30:01.652Z,1009.37
2019-05-05T02:31:01.640Z,1009.39
2019-05-05T02:32:01.620Z,1009.40
2019-05-05T02:33:01.616Z,1009.37
2019-05-05T02:34:01.605Z,1009.43
2019-05-05T02:35:01.613Z,1009.42
2019-05-05T02:36:01.586Z,1009.43
2019-05-05T02:37:01.571Z,1009.44
2019-05-05T02:38:01.562Z,1009.48
2019-05-05T02:39:01.550Z,1009.44
2019-05-05T02:40:06.325Z,1009.46
2019-05-05T02:41:04.768Z,1009.47
2019-05-05T02:42:01.522Z,1009.48
2019-05-05T02:43:01.507Z,1009.53
2019-05-05T02:44:01.497Z,1009.53
2019-05-05T02:45:01.547Z,1009.52
2019-05-05T02:46:01.477Z,1009.57
2019-05-05T02:47:04.575Z,1009.58
2019-05-05T02:48:01.453Z,1009.58
2019-05-05T02:49:05.025Z,1009.57
2019-05-05T02:50:01.434Z,1009.61
2019-05-05T02:51:02.889Z,1009.64
2019-05-05T02:52:04.695Z,1009.67
2019-05-05T02:53:01.408Z,1009.65
2019-05-05T02:54:01.396Z,1009.70
2019-05-05T02:55:01.372Z,1009.68
2019-05-05T02:56:01.368Z,1009.72
2019-05-05T02:57:01.360Z,1009.75
2019-05-05T02:58:01.353Z,1009.75
2019-05-05T02:59:01.347Z,1009.73
2019-05-05T03:00:01.330Z,1009.74
2019-05-05T03:01:01.321Z,1009.74
2019-05-05T03:02:01.314Z,1009.78
2019-05-05T03:03:01.296Z,1009.77
2019-05-05T03:04:01.285Z,1009.77
2019-05-05T03:05:01.275Z,1009.78
2019-05-05T03:06:01.265Z,1009.78
2019-05-05T03:07:01.255Z,1009.79
2019-05-05T03:08:01.241Z,1009.81
2019-05-05T03:09:01.234Z,1009.88
2019-05-05T03:10:03.555Z,1009.81
2019-05-05T03:11:01.218Z,1009.85
2019-05-05T03:12:01.192Z,1009.86
2019-05-05T03:13:01.184Z,1009.91
2019-05-05T03:14:01.177Z,1009.88
2019-05-05T03:15:01.166Z,1009.89
2019-05-05T03:16:01.161Z,1009.92
2019-05-05T03:17:01.146Z,1009.90
2019-05-05T03:18:01.138Z,1009.91
2019-05-05T03:19:01.126Z,1009.95
2019-05-05T03:20:01.115Z,1009.95
2019-05-05T03:21:04.629Z,1009.99
2019-05-05T03:22:01.098Z,1010.01
2019-05-05T03:23:01.084Z,1009.99
2019-05-05T03:24:01.073Z,1010.01
2019-05-05T03:25:01.066Z,1010.08
2019-05-05T03:26:01.051Z,1010.08
2019-05-05T03:27:01.041Z,1010.10
2019-05-05T03:28:01.031Z,1010.08
2019-05-05T03:29:01.025Z,1010.10
2019-05-05T03:30:01.016Z,1010.11
2019-05-05T03:31:00.998Z,1010.09
2019-05-05T03:32:00.986Z,1010.11
2019-05-05T03:33:00.981Z,1010.14
2019-05-05T03:34:00.966Z,1010.15
2019-05-05T03:35:00.954Z,1010.17
2019-05-05T03:36:00.942Z,1010.16
2019-05-05T03:37:00.933Z,1010.16
2019-05-05T03:38:00.925Z,1010.15
2019-05-05T03:39:00.911Z,1010.18
2019-05-05T03:40:00.899Z,1010.16
2019-05-05T03:41:00.893Z,1010.21
2019-05-05T03:42:00.877Z,1010.21
2019-05-05T03:43:00.872Z,1010.24
2019-05-05T03:44:00.860Z,1010.22
2019-05-05T03:45:00.844Z,1010.24
2019-05-05T03:46:00.838Z,1010.25
2019-05-05T03:47:00.833Z,1010.28
2019-05-05T03:48:00.819Z,1010.30
2019-05-05T03:49:00.802Z,1010.31
2019-05-05T03:50:00.795Z,1010.30
2019-05-05T03:51:00.781Z,1010.32
2019-05-05T03:52:00.777Z,1010.35
2019-05-05T03:53:00.759Z,1010.32
2019-05-05T03:54:00.749Z,1010.42
2019-05-05T03:55:00.739Z,1010.39
2019-05-05T03:56:00.726Z,1010.42
2019-05-05T03:57:00.717Z,1010.42
2019-05-05T03:58:00.705Z,1010.45
2019-05-05T03:59:00.696Z,1010.47
2019-05-05T04:00:00.682Z,1010.43
2019-05-05T04:01:00.674Z,1010.44
2019-05-05T04:02:00.664Z,1010.39
2019-05-05T04:03:00.654Z,1010.43
2019-05-05T04:04:00.642Z,1010.43
2019-05-05T04:05:00.633Z,1010.38
2019-05-05T04:06:00.620Z,1010.42
2019-05-05T04:07:00.610Z,1010.38
2019-05-05T04:08:00.600Z,1010.41
2019-05-05T04:09:00.593Z,1010.46
2019-05-05T04:10:00.580Z,1010.46
2019-05-05T04:11:00.567Z,1010.46
2019-05-05T04:12:00.556Z,1010.51
2019-05-05T04:13:00.544Z,1010.50
2019-05-05T04:14:00.536Z,1010.52
2019-05-05T04:15:00.524Z,1010.50
2019-05-05T04:16:00.513Z,1010.53
2019-05-05T04:17:00.501Z,1010.51
2019-05-05T04:18:00.490Z,1010.51
2019-05-05T04:19:00.480Z,1010.56
2019-05-05T04:20:00.468Z,1010.52
2019-05-05T04:21:00.459Z,1010.61
2019-05-05T04:22:00.449Z,1010.59
2019-05-05T04:23:00.438Z,1010.62
2019-05-05T04:24:00.426Z,1010.63
2019-05-05T04:25:00.416Z,1010.67
2019-05-05T04:26:00.409Z,1010.66
2019-05-05T04:27:00.412Z,1010.63
2019-05-05T04:28:00.383Z,1010.68
2019-05-05T04:29:02.413Z,1010.67
2019-05-05T04:30:00.361Z,1010.69
2019-05-05T04:31:00.350Z,1010.67
2019-05-05T04:32:00.341Z,1010.72
2019-05-05T04:33:00.328Z,1010.73
2019-05-05T04:34:00.323Z,1010.78
2019-05-05T04:35:00.315Z,1010.77
2019-05-05T04:36:00.298Z,1010.81
2019-05-05T04:37:00.291Z,1010.85
2019-05-05T04:38:00.277Z,1010.86
2019-05-05T04:39:00.266Z,1010.87
2019-05-05T04:40:00.254Z,1010.92
2019-05-05T04:41:00.245Z,1010.93
2019-05-05T04:42:00.236Z,1010.92
2019-05-05T04:43:00.226Z,1010.94
2019-05-05T04:44:00.214Z,1010.93
2019-05-05T04:45:00.210Z,1010.94
2019-05-05T04:46:00.817Z,1010.96
2019-05-05T04:47:00.183Z,1010.96
2019-05-05T04:48:00.177Z,1010.97
2019-05-05T04:49:00.165Z,1011.00
2019-05-05T04:50:00.157Z,1011.01
2019-05-05T04:51:00.146Z,1010.98
2019-05-05T04:52:00.136Z,1010.98
2019-05-05T04:53:00.127Z,1010.98
2019-05-05T04:54:00.119Z,1010.94
2019-05-05T04:55:00.110Z,1010.97
2019-05-05T04:56:00.100Z,1010.96
2019-05-05T04:57:00.090Z,1010.97
2019-05-05T04:58:00.081Z,1010.99
2019-05-05T04:59:00.072Z,1011.01
2019-05-05T05:00:00.066Z,1011.04
2019-05-05T05:01:00.055Z,1011.00
2019-05-05T05:02:00.050Z,1011.01
2019-05-05T05:03:00.041Z,1011.07
2019-05-05T05:04:00.032Z,1011.06
2019-05-05T05:05:00.023Z,1011.02
2019-05-05T05:06:00.014Z,1011.07
2019-05-05T05:07:00.010Z,1011.03
2019-05-05T05:07:59.998Z,1011.06
2019-05-05T05:08:59.993Z,1011.07
2019-05-05T05:09:59.985Z,1011.08
2019-05-05T05:10:59.978Z,1011.12
2019-05-05T05:11:59.967Z,1011.15
2019-05-05T05:12:59.965Z,1011.15
2019-05-05T05:13:59.953Z,1011.17
2019-05-05T05:14:59.946Z,1011.20
2019-05-05T05:15:59.939Z,1011.16
2019-05-05T05:16:59.936Z,1011.20
2019-05-05T05:17:59.928Z,1011.18
2019-05-05T05:18:59.919Z,1011.23
2019-05-05T05:19:59.912Z,1011.19
2019-05-05T05:20:59.906Z,1011.18
2019-05-05T05:22:02.139Z,1011.15
2019-05-05T05:22:59.890Z,1011.16
2019-05-05T05:23:59.894Z,1011.16
2019-05-05T05:24:59.882Z,1011.20
2019-05-05T05:25:59.872Z,1011.18
2019-05-05T05:26:59.871Z,1011.19
2019-05-05T05:27:59.860Z,1011.19
2019-05-05T05:28:59.854Z,1011.21
2019-05-05T05:29:59.853Z,1011.23
2019-05-05T05:30:59.841Z,1011.19
2019-05-05T05:31:59.837Z,1011.15
2019-05-05T05:32:59.829Z,1011.19
2019-05-05T05:33:59.830Z,1011.15
2019-05-05T05:34:59.820Z,1011.18
2019-05-05T05:35:59.814Z,1011.19
2019-05-05T05:36:59.810Z,1011.16
2019-05-05T05:37:59.804Z,1011.17
2019-05-05T05:38:59.797Z,1011.17
2019-05-05T05:39:59.791Z,1011.16
2019-05-05T05:40:59.787Z,1011.16
2019-05-05T05:41:59.781Z,1011.17
2019-05-05T05:42:59.775Z,1011.24
2019-05-05T05:43:59.770Z,1011.26
2019-05-05T05:44:59.766Z,1011.26
2019-05-05T05:45:59.758Z,1011.27
2019-05-05T05:46:59.754Z,1011.28
2019-05-05T05:47:59.751Z,1011.25
2019-05-05T05:48:59.745Z,1011.22
2019-05-05T05:49:59.740Z,1011.27
2019-05-05T05:50:59.734Z,1011.26
2019-05-05T05:52:12.572Z,1011.26
2019-05-05T05:52:59.726Z,1011.27
2019-05-05T05:53:59.718Z,1011.27
2019-05-05T05:54:59.712Z,1011.29
2019-05-05T05:55:59.706Z,1011.27
2019-05-05T05:56:59.703Z,1011.26
2019-05-05T05:57:59.697Z,1011.30
2019-05-05T05:58:59.695Z,1011.36
2019-05-05T05:59:59.687Z,1011.33
2019-05-05T06:00:59.681Z,1011.38
2019-05-05T06:02:09.170Z,1011.41
2019-05-05T06:02:59.674Z,1011.37
2019-05-05T06:03:59.681Z,1011.39
2019-05-05T06:04:59.664Z,1011.38
2019-05-05T06:05:59.658Z,1011.41
2019-05-05T06:06:59.651Z,1011.46
2019-05-05T06:07:59.649Z,1011.48
2019-05-05T06:08:59.644Z,1011.48
2019-05-05T06:09:59.641Z,1011.50
2019-05-05T06:10:59.640Z,1011.50
2019-05-05T06:11:59.633Z,1011.53
2019-05-05T06:12:59.628Z,1011.49
2019-05-05T06:13:59.623Z,1011.54
2019-05-05T06:14:59.619Z,1011.51
2019-05-05T06:15:59.621Z,1011.51
2019-05-05T06:16:59.610Z,1011.57
2019-05-05T06:17:59.604Z,1011.61
2019-05-05T06:18:59.602Z,1011.62
2019-05-05T06:19:59.597Z,1011.61
2019-05-05T06:20:59.593Z,1011.65
2019-05-05T06:21:59.588Z,1011.65
2019-05-05T06:22:59.586Z,1011.68
2019-05-05T06:23:59.583Z,1011.71
2019-05-05T06:24:59.580Z,1011.72
2019-05-05T06:25:59.575Z,1011.74
2019-05-05T06:26:59.571Z,1011.72
2019-05-05T06:27:59.568Z,1011.75
2019-05-05T06:28:59.562Z,1011.79
2019-05-05T06:29:59.558Z,1011.81
2019-05-05T06:31:01.354Z,1011.78
2019-05-05T06:32:01.252Z,1011.78
2019-05-05T06:32:59.549Z,1011.78
2019-05-05T06:33:59.547Z,1011.77
2019-05-05T06:34:59.541Z,1011.78
2019-05-05T06:35:59.538Z,1011.78
2019-05-05T06:36:59.545Z,1011.79
2019-05-05T06:37:59.533Z,1011.80
2019-05-05T06:38:59.527Z,1011.82
2019-05-05T06:39:59.527Z,1011.83
2019-05-05T06:40:59.523Z,1011.84
2019-05-05T06:41:59.521Z,1011.86
2019-05-05T06:42:59.517Z,1011.84
2019-05-05T06:43:59.520Z,1011.85
2019-05-05T06:44:59.510Z,1011.87
2019-05-05T06:45:59.508Z,1011.84
2019-05-05T06:46:59.505Z,1011.86
2019-05-05T06:47:59.502Z,1011.84
2019-05-05T06:48:59.500Z,1011.88
2019-05-05T06:49:59.498Z,1011.89
2019-05-05T06:50:59.495Z,1011.85
2019-05-05T06:51:59.491Z,1011.87
2019-05-05T06:52:59.490Z,1011.87
2019-05-05T06:53:59.488Z,1011.90
2019-05-05T06:54:59.486Z,1011.88
2019-05-05T06:55:59.483Z,1011.88
2019-05-05T06:56:59.483Z,1011.95
2019-05-05T06:57:59.479Z,1011.96
2019-05-05T06:58:59.475Z,1011.94
2019-05-05T06:59:59.481Z,1011.93
2019-05-05T07:00:59.476Z,1011.96
2019-05-05T07:01:59.472Z,1011.97
2019-05-05T07:02:59.471Z,1012.00
2019-05-05T07:03:59.471Z,1012.02
2019-05-05T07:04:59.468Z,1011.99
2019-05-05T07:05:59.484Z,1012.00
2019-05-05T07:06:59.471Z,1011.98
2019-05-05T07:07:59.518Z,1011.98
2019-05-05T07:08:59.463Z,1011.98
2019-05-05T07:09:59.509Z,1012.01
2019-05-05T07:10:59.546Z,1011.98
2019-05-05T07:11:59.473Z,1011.96
2019-05-05T07:12:59.464Z,1011.97
2019-05-05T07:13:59.472Z,1011.95
2019-05-05T07:14:59.464Z,1011.97
2019-05-05T07:15:59.462Z,1011.97
2019-05-05T07:16:59.465Z,1011.96
2019-05-05T07:17:59.467Z,1011.97
2019-05-05T07:18:59.463Z,1011.97
2019-05-05T07:19:59.465Z,1011.99
2019-05-05T07:20:59.463Z,1011.95
2019-05-05T07:21:59.465Z,1011.99
2019-05-05T07:23:02.413Z,1012.02
2019-05-05T07:23:59.461Z,1012.00
2019-05-05T07:24:59.464Z,1011.99
2019-05-05T07:25:59.463Z,1011.97
2019-05-05T07:26:59.463Z,1011.97
2019-05-05T07:27:59.466Z,1011.98
2019-05-05T07:28:59.459Z,1011.96
2019-05-05T07:29:59.464Z,1011.95
2019-05-05T07:30:59.477Z,1011.96
2019-05-05T07:31:59.462Z,1011.93
2019-05-05T07:32:59.461Z,1011.96
2019-05-05T07:33:59.465Z,1011.94
2019-05-05T07:34:59.466Z,1011.97
2019-05-05T07:36:03.252Z,1011.97
2019-05-05T07:36:59.464Z,1011.93
2019-05-05T07:37:59.463Z,1011.93
2019-05-05T07:38:59.462Z,1011.99
2019-05-05T07:39:59.461Z,1012.02
2019-05-05T07:40:59.463Z,1011.99
2019-05-05T07:41:59.463Z,1012.01
2019-05-05T07:42:59.462Z,1012.04
2019-05-05T07:43:59.464Z,1012.01
2019-05-05T07:44:59.465Z,1012.01
2019-05-05T07:45:59.464Z,1012.05
2019-05-05T07:46:59.467Z,1012.01
2019-05-05T07:47:59.467Z,1012.02
2019-05-05T07:48:59.464Z,1012.03
2019-05-05T07:49:59.466Z,1012.03
2019-05-05T07:51:04.470Z,1012.06
2019-05-05T07:51:59.549Z,1012.08
2019-05-05T07:53:11.448Z,1011.99
2019-05-05T07:53:59.468Z,1012.06
2019-05-05T07:54:59.467Z,1011.96
2019-05-05T07:55:59.471Z,1012.06
2019-05-05T07:56:59.471Z,1012.09
2019-05-05T07:57:59.471Z,1012.03
2019-05-05T07:58:59.469Z,1012.08
2019-05-05T07:59:59.473Z,1012.05
2019-05-05T08:00:59.470Z,1012.00
2019-05-05T08:01:59.471Z,1012.07
2019-05-05T08:02:59.472Z,1012.08
2019-05-05T08:03:59.472Z,1012.11
2019-05-05T08:04:59.474Z,1012.09
2019-05-05T08:05:59.472Z,1012.16
2019-05-05T08:06:59.475Z,1012.19
2019-05-05T08:07:59.474Z,1012.19
2019-05-05T08:08:59.474Z,1012.26
2019-05-05T08:09:59.474Z,1012.26
2019-05-05T08:10:59.476Z,1012.17
2019-05-05T08:11:59.474Z,1012.10
2019-05-05T08:12:59.476Z,1012.06
2019-05-05T08:13:59.478Z,1012.15
2019-05-05T08:14:59.477Z,1012.31
2019-05-05T08:16:00.198Z,1012.27
2019-05-05T08:16:59.476Z,1012.23
2019-05-05T08:17:59.478Z,1012.24
2019-05-05T08:18:59.481Z,1012.28
2019-05-05T08:19:59.487Z,1012.24
2019-05-05T08:20:59.480Z,1012.24
2019-05-05T08:21:59.492Z,1012.10
2019-05-05T08:22:59.484Z,1012.08
2019-05-05T08:23:59.473Z,1012.20
2019-05-05T08:24:59.484Z,1012.30
2019-05-05T08:25:59.482Z,1012.26
2019-05-05T08:26:59.516Z,1012.27
2019-05-05T08:27:59.484Z,1012.22
2019-05-05T08:28:59.484Z,1012.28
2019-05-05T08:30:02.310Z,1012.08
2019-05-05T08:30:59.487Z,1012.06
2019-05-05T08:31:59.492Z,1012.02
2019-05-05T08:32:59.490Z,1012.04
2019-05-05T08:33:59.489Z,1012.34
2019-05-05T08:35:00.994Z,1012.30
2019-05-05T08:35:59.491Z,1012.28
2019-05-05T08:37:00.046Z,1012.35
2019-05-05T08:37:59.490Z,1012.12
2019-05-05T08:38:59.493Z,1012.11
2019-05-05T08:39:59.512Z,1012.01
2019-05-05T08:40:59.501Z,1012.14
2019-05-05T08:41:59.489Z,1012.13
2019-05-05T08:42:59.487Z,1012.16
2019-05-05T08:43:59.489Z,1012.19
2019-05-05T08:44:59.517Z,1012.13
2019-05-05T08:45:59.487Z,1012.34
2019-05-05T08:46:59.487Z,1012.37
2019-05-05T08:47:59.486Z,1012.39
2019-05-05T08:48:59.485Z,1012.39
2019-05-05T08:49:59.483Z,1012.12
2019-05-05T08:50:59.479Z,1012.15
2019-05-05T08:51:59.477Z,1012.21
2019-05-05T08:52:59.476Z,1012.19
2019-05-05T08:53:59.474Z,1012.20
2019-05-05T08:54:59.470Z,1012.25
2019-05-05T08:55:59.471Z,1012.28
2019-05-05T08:56:59.469Z,1012.27
2019-05-05T08:57:59.466Z,1012.28
2019-05-05T08:58:59.460Z,1012.28
2019-05-05T08:59:59.460Z,1012.29
2019-05-05T09:00:59.457Z,1012.25
2019-05-05T09:01:59.453Z,1012.24
2019-05-05T09:02:59.448Z,1012.24
2019-05-05T09:03:59.445Z,1012.22
2019-05-05T09:04:59.442Z,1012.22
2019-05-05T09:05:59.444Z,1012.17
2019-05-05T09:06:59.436Z,1012.21
2019-05-05T09:07:59.432Z,1012.24
2019-05-05T09:08:59.430Z,1012.19
2019-05-05T09:09:59.427Z,1012.22
2019-05-05T09:10:59.425Z,1012.22
2019-05-05T09:11:59.422Z,1012.21
2019-05-05T09:12:59.415Z,1012.24
2019-05-05T09:13:59.412Z,1012.14
2019-05-05T09:14:59.406Z,1012.17
2019-05-05T09:15:59.405Z,1012.18
2019-05-05T09:16:59.402Z,1012.17
2019-05-05T09:17:59.395Z,1012.21
2019-05-05T09:18:59.394Z,1012.22
2019-05-05T09:19:59.392Z,1012.19
2019-05-05T09:20:59.383Z,1012.22
2019-05-05T09:21:59.381Z,1012.22
2019-05-05T09:22:59.376Z,1012.24
2019-05-05T09:24:02.637Z,1012.25
2019-05-05T09:24:59.365Z,1012.20
2019-05-05T09:25:59.363Z,1012.20
2019-05-05T09:26:59.357Z,1012.23
2019-05-05T09:27:59.355Z,1012.15
2019-05-05T09:28:59.346Z,1012.16
2019-05-05T09:29:59.340Z,1012.16
2019-05-05T09:30:59.338Z,1012.19
2019-05-05T09:31:59.335Z,1012.05
2019-05-05T09:32:59.331Z,1012.17
2019-05-05T09:33:59.324Z,1012.16
2019-05-05T09:34:59.323Z,1012.20
2019-05-05T09:35:59.316Z,1012.18
2019-05-05T09:36:59.316Z,1012.22
2019-05-05T09:37:59.308Z,1012.21
2019-05-05T09:38:59.299Z,1012.24
2019-05-05T09:39:59.297Z,1012.27
2019-05-05T09:40:59.293Z,1012.17
2019-05-05T09:41:59.287Z,1012.20
2019-05-05T09:42:59.283Z,1012.19
2019-05-05T09:43:59.277Z,1012.21
2019-05-05T09:44:59.278Z,1012.22
2019-05-05T09:45:59.270Z,1012.22
2019-05-05T09:46:59.261Z,1012.24
2019-05-05T09:47:59.259Z,1012.23
2019-05-05T09:48:59.256Z,1012.19
2019-05-05T09:49:59.249Z,1012.17
2019-05-05T09:50:59.243Z,1012.23
2019-05-05T09:51:59.238Z,1012.15
2019-05-05T09:52:59.234Z,1012.13
2019-05-05T09:54:11.021Z,1012.23
2019-05-05T09:54:59.223Z,1012.22
2019-05-05T09:55:59.222Z,1012.24
2019-05-05T09:56:59.216Z,1012.31
2019-05-05T09:57:59.214Z,1012.27
2019-05-05T09:58:59.210Z,1012.31
2019-05-05T09:59:59.200Z,1012.32
2019-05-05T10:00:59.196Z,1012.32
2019-05-05T10:01:59.194Z,1012.29
2019-05-05T10:02:59.186Z,1012.30
2019-05-05T10:03:59.182Z,1012.30
2019-05-05T10:04:59.179Z,1012.28
2019-05-05T10:05:59.172Z,1012.28
2019-05-05T10:06:59.169Z,1012.31
2019-05-05T10:07:59.165Z,1012.29
2019-05-05T10:08:59.157Z,1012.33
2019-05-05T10:09:59.155Z,1012.37
2019-05-05T10:10:59.149Z,1012.36
2019-05-05T10:11:59.145Z,1012.39
2019-05-05T10:12:59.140Z,1012.39
2019-05-05T10:13:59.135Z,1012.41
2019-05-05T10:14:59.129Z,1012.35
2019-05-05T10:15:59.128Z,1012.38
2019-05-05T10:16:59.127Z,1012.35
2019-05-05T10:17:59.116Z,1012.35
2019-05-05T10:18:59.111Z,1012.30
2019-05-05T10:19:59.105Z,1012.32
2019-05-05T10:20:59.103Z,1012.35
2019-05-05T10:21:59.100Z,1012.34
2019-05-05T10:22:59.092Z,1012.34
2019-05-05T10:23:59.089Z,1012.36
2019-05-05T10:24:59.087Z,1012.41
2019-05-05T10:25:59.084Z,1012.38
2019-05-05T10:26:59.077Z,1012.36
2019-05-05T10:27:59.075Z,1012.46
2019-05-05T10:29:01.205Z,1012.39
2019-05-05T10:29:59.065Z,1012.43
2019-05-05T10:30:59.060Z,1012.40
2019-05-05T10:31:59.053Z,1012.41
2019-05-05T10:32:59.049Z,1012.39
2019-05-05T10:33:59.048Z,1012.39
2019-05-05T10:34:59.042Z,1012.43
2019-05-05T10:35:59.039Z,1012.39
2019-05-05T10:36:59.036Z,1012.38
2019-05-05T10:37:59.029Z,1012.40
2019-05-05T10:38:59.020Z,1012.33
2019-05-05T10:39:59.016Z,1012.46
2019-05-05T10:40:59.016Z,1012.42
2019-05-05T10:41:59.013Z,1012.43
2019-05-05T10:42:59.008Z,1012.35
2019-05-05T10:43:59.001Z,1012.37
2019-05-05T10:44:59.001Z,1012.37
2019-05-05T10:45:58.991Z,1012.37
2019-05-05T10:46:58.985Z,1012.38
2019-05-05T10:47:58.977Z,1012.42
2019-05-05T10:48:59.830Z,1012.42
2019-05-05T10:49:58.970Z,1012.42
2019-05-05T10:50:58.971Z,1012.38
2019-05-05T10:51:58.965Z,1012.41
2019-05-05T10:52:58.960Z,1012.39
2019-05-05T10:53:58.955Z,1012.38
2019-05-05T10:54:58.953Z,1012.45
2019-05-05T10:55:58.944Z,1012.44
2019-05-05T10:56:58.941Z,1012.38
2019-05-05T10:57:58.940Z,1012.41
2019-05-05T10:58:58.931Z,1012.40
2019-05-05T11:00:10.136Z,1012.38
2019-05-05T11:00:58.922Z,1012.36
2019-05-05T11:01:58.917Z,1012.31
2019-05-05T11:02:59.461Z,1012.31
2019-05-05T11:03:58.908Z,1012.31
2019-05-05T11:04:58.905Z,1012.35
2019-05-05T11:05:58.902Z,1012.34
2019-05-05T11:06:58.895Z,1012.31
2019-05-05T11:07:58.893Z,1012.33
2019-05-05T11:08:58.886Z,1012.33
2019-05-05T11:09:58.885Z,1012.32
2019-05-05T11:10:58.887Z,1012.32
2019-05-05T11:11:58.871Z,1012.28
2019-05-05T11:12:58.873Z,1012.25
2019-05-05T11:13:58.864Z,1012.23
2019-05-05T11:14:58.858Z,1012.24
2019-05-05T11:15:58.853Z,1012.25
2019-05-05T11:16:58.850Z,1012.22
2019-05-05T11:17:58.845Z,1012.20
2019-05-05T11:18:58.840Z,1012.23
2019-05-05T11:19:58.837Z,1012.25
2019-05-05T11:20:58.832Z,1012.25
2019-05-05T11:21:58.828Z,1012.27
2019-05-05T11:22:58.821Z,1012.21
2019-05-05T11:23:58.819Z,1012.23
2019-05-05T11:25:01.120Z,1012.22
2019-05-05T11:25:58.809Z,1012.19
2019-05-05T11:26:58.803Z,1012.20
2019-05-05T11:27:58.799Z,1012.20
2019-05-05T11:28:58.797Z,1012.22
2019-05-05T11:29:58.789Z,1012.10
2019-05-05T11:30:58.787Z,1012.21
2019-05-05T11:31:58.782Z,1012.21
2019-05-05T11:32:58.775Z,1012.27
2019-05-05T11:33:58.774Z,1012.16
2019-05-05T11:34:58.771Z,1012.24
2019-05-05T11:35:58.765Z,1012.25
2019-05-05T11:36:58.760Z,1012.28
2019-05-05T11:37:58.754Z,1012.29
2019-05-05T11:38:58.749Z,1012.31
2019-05-05T11:39:58.745Z,1012.31
2019-05-05T11:40:58.740Z,1012.33
2019-05-05T11:41:58.738Z,1012.29
2019-05-05T11:42:58.731Z,1012.28
2019-05-05T11:43:58.727Z,1012.26
2019-05-05T11:44:58.724Z,1012.27
2019-05-05T11:45:58.769Z,1012.32
2019-05-05T11:46:58.716Z,1012.31
2019-05-05T11:47:58.715Z,1012.37
2019-05-05T11:48:58.705Z,1012.36
2019-05-05T11:49:58.703Z,1012.36
2019-05-05T11:50:58.694Z,1012.32
2019-05-05T11:51:58.692Z,1012.33
2019-05-05T11:52:58.686Z,1012.32
2019-05-05T11:53:58.682Z,1012.34
2019-05-05T11:55:09.794Z,1012.33
2019-05-05T11:55:58.672Z,1012.37
2019-05-05T11:56:58.668Z,1012.42
2019-05-05T11:57:58.664Z,1012.36
2019-05-05T11:58:58.659Z,1012.39
2019-05-05T11:59:58.653Z,1012.41
2019-05-05T12:00:58.648Z,1012.41
2019-05-05T12:01:58.646Z,1012.44
2019-05-05T12:02:58.638Z,1012.45
2019-05-05T12:03:58.637Z,1012.48
2019-05-05T12:04:58.631Z,1012.45